createdAt,value
2019-01-10T00:02:01.738Z,85.10
2019-01-10T00:04:46.511Z,85.50
2019-01-10T00:07:31.959Z,84.80
2019-01-10T00:10:17.364Z,84.90
2019-01-10T00:13:02.441Z,85.00
2019-01-10T00:15:47.736Z,84.70
2019-01-10T00:18:32.504Z,84.40
2019-01-10T00:21:17.254Z,84.80
2019-01-10T00:24:02.061Z,84.20
2019-01-10T00:26:46.791Z,84.20
2019-01-10T00:29:31.955Z,84.10
2019-01-10T00:32:16.910Z,84.10
2019-01-10T00:35:01.946Z,84.10
2019-01-10T00:37:47.063Z,84.20
2019-01-10T00:40:32.032Z,84.40
2019-01-10T00:43:17.454Z,84.50
2019-01-10T00:46:02.710Z,84.80
2019-01-10T00:48:47.915Z,84.20
2019-01-10T00:51:33.210Z,84.20
2019-01-10T00:54:18.404Z,84.30
2019-01-10T00:57:03.210Z,84.40
2019-01-10T00:59:47.953Z,84.70
2019-01-10T01:02:32.814Z,84.00
2019-01-10T01:05:18.083Z,84.10
2019-01-10T01:08:03.157Z,83.50
2019-01-10T01:10:47.951Z,83.50
2019-01-10T01:13:33.213Z,83.70
2019-01-10T01:16:18.053Z,84.30
2019-01-10T01:19:03.249Z,84.80
2019-01-10T01:21:48.183Z,84.50
2019-01-10T01:24:33.304Z,84.90
2019-01-10T01:27:18.067Z,85.00
2019-01-10T01:30:07.069Z,84.10
2019-01-10T01:32:52.586Z,84.50
2019-01-10T01:35:37.791Z,84.80
2019-01-10T01:38:22.622Z,84.10
2019-01-10T01:41:07.945Z,84.20
2019-01-10T01:43:53.156Z,83.50
2019-01-10T01:46:38.320Z,83.50
2019-01-10T01:49:23.610Z,83.80
2019-01-10T01:52:08.986Z,83.80
2019-01-10T01:54:53.732Z,84.10
2019-01-10T01:57:38.788Z,84.30
2019-01-10T02:00:23.621Z,83.60
2019-01-10T02:03:08.774Z,84.30
2019-01-10T02:05:53.519Z,84.80
2019-01-10T02:08:38.951Z,85.20
2019-01-10T02:11:23.689Z,85.40
2019-01-10T02:14:09.172Z,84.60
2019-01-10T02:16:54.531Z,85.00
2019-01-10T02:19:39.758Z,84.80
2019-01-10T02:22:24.576Z,85.00
2019-01-10T02:25:11.928Z,85.30
2019-01-10T02:27:57.041Z,85.20
2019-01-10T02:30:42.511Z,85.10
2019-01-10T02:33:27.901Z,84.60
2019-01-10T02:36:13.224Z,84.50
2019-01-10T02:38:58.408Z,85.40
2019-01-10T02:41:44.236Z,85.00
2019-01-10T02:44:28.854Z,85.30
2019-01-10T02:47:13.672Z,85.90
2019-01-10T02:49:58.386Z,86.20
2019-01-10T02:52:43.719Z,86.00
2019-01-10T02:55:28.946Z,86.00
2019-01-10T02:58:14.140Z,87.00
2019-01-10T03:00:58.901Z,86.60
2019-01-10T03:03:44.143Z,86.50
2019-01-10T03:06:29.338Z,86.80
2019-01-10T03:09:14.511Z,86.10
2019-01-10T03:11:59.349Z,86.30
2019-01-10T03:14:44.540Z,86.20
2019-01-10T03:17:31.629Z,86.00
2019-01-10T03:20:19.209Z,86.50
2019-01-10T03:23:04.427Z,86.60
2019-01-10T03:25:49.985Z,85.90
2019-01-10T03:28:34.938Z,86.10
2019-01-10T03:31:25.078Z,85.90
2019-01-10T03:34:10.113Z,85.80
2019-01-10T03:36:55.509Z,86.40
2019-01-10T03:39:40.441Z,85.90
2019-01-10T03:42:25.189Z,86.40
2019-01-10T03:45:12.624Z,86.70
2019-01-10T03:47:57.755Z,86.20
2019-01-10T03:50:43.075Z,86.30
2019-01-10T03:53:27.848Z,85.60
2019-01-10T03:56:13.201Z,84.80
2019-01-10T03:58:58.654Z,85.20
2019-01-10T04:01:43.663Z,84.30
2019-01-10T04:04:28.931Z,84.10
2019-01-10T04:07:14.072Z,83.60
2019-01-10T04:09:59.389Z,83.30
2019-01-10T04:12:44.139Z,83.20
2019-01-10T04:15:29.492Z,82.50
2019-01-10T04:18:14.509Z,83.20
2019-01-10T04:20:59.741Z,83.00
2019-01-10T04:23:44.940Z,82.20
2019-01-10T04:26:30.134Z,82.50
2019-01-10T04:29:15.642Z,82.50
2019-01-10T04:32:00.753Z,82.80
2019-01-10T04:34:45.596Z,82.80
2019-01-10T04:37:30.827Z,82.80
2019-01-10T04:40:17.480Z,82.80
2019-01-10T04:43:02.966Z,83.10
2019-01-10T04:45:47.852Z,82.40
2019-01-10T04:48:32.728Z,82.80
2019-01-10T04:51:17.895Z,82.30
2019-01-10T04:54:02.633Z,82.60
2019-01-10T04:56:47.812Z,82.90
2019-01-10T04:59:32.890Z,82.50
2019-01-10T05:02:18.394Z,82.50
2019-01-10T05:05:05.465Z,82.10
2019-01-10T05:07:50.442Z,82.70
2019-01-10T05:10:35.573Z,82.50
2019-01-10T05:13:20.564Z,82.60
2019-01-10T05:16:05.549Z,83.70
2019-01-10T05:18:50.319Z,82.70
2019-01-10T05:21:35.651Z,82.40
2019-01-10T05:24:21.027Z,82.40
2019-01-10T05:27:05.806Z,82.80
2019-01-10T05:29:50.488Z,83.50
2019-01-10T05:32:35.634Z,82.80
2019-01-10T05:35:20.669Z,82.50
2019-01-10T05:38:05.684Z,83.10
2019-01-10T05:40:50.592Z,82.80
2019-01-10T05:43:35.799Z,83.50
2019-01-10T05:46:20.760Z,83.80
2019-01-10T05:49:05.942Z,83.40
2019-01-10T05:51:51.182Z,82.80
2019-01-10T05:54:35.858Z,82.60
2019-01-10T05:57:20.829Z,82.80
2019-01-10T06:00:18.100Z,83.10
2019-01-10T06:03:02.899Z,83.60
2019-01-10T06:05:47.983Z,83.40
2019-01-10T06:08:32.704Z,83.00
2019-01-10T06:11:17.809Z,83.20
2019-01-10T06:14:02.723Z,83.20
2019-01-10T06:16:47.921Z,83.80
2019-01-10T06:19:32.652Z,84.20
2019-01-10T06:22:17.421Z,83.80
2019-01-10T06:25:02.176Z,83.20
2019-01-10T06:27:47.559Z,83.60
2019-01-10T06:30:32.751Z,83.60
2019-01-10T06:33:17.850Z,83.40
2019-01-10T06:36:02.675Z,84.00
2019-01-10T06:38:47.823Z,83.30
2019-01-10T06:41:33.077Z,84.00
2019-01-10T06:44:18.620Z,84.10
2019-01-10T06:47:03.639Z,83.10
2019-01-10T06:49:48.807Z,82.70
2019-01-10T06:52:33.650Z,82.80
2019-01-10T06:55:18.835Z,82.70
2019-01-10T06:58:04.107Z,82.50
2019-01-10T07:00:49.030Z,83.00
2019-01-10T07:03:34.231Z,83.00
2019-01-10T07:06:19.110Z,82.80
2019-01-10T07:09:06.695Z,82.60
2019-01-10T07:11:51.618Z,83.20
2019-01-10T07:14:37.107Z,83.10
2019-01-10T07:17:22.443Z,82.50
2019-01-10T07:20:09.358Z,82.70
2019-01-10T07:22:54.296Z,82.30
2019-01-10T07:25:39.109Z,82.30
2019-01-10T07:28:24.467Z,82.40
2019-01-10T07:31:11.674Z,82.70
2019-01-10T07:33:59.626Z,83.40
2019-01-10T07:36:50.013Z,83.50
2019-01-10T07:39:38.836Z,83.80
2019-01-10T07:42:30.584Z,83.30
2019-01-10T07:45:18.312Z,83.10
2019-01-10T07:48:03.565Z,82.90
2019-01-10T07:50:48.797Z,84.50
2019-01-10T07:53:34.167Z,83.90
2019-01-10T07:56:18.878Z,83.20
2019-01-10T07:59:04.477Z,83.00
2019-01-10T08:01:49.857Z,83.30
2019-01-10T08:04:35.501Z,82.80
2019-01-10T08:07:20.339Z,82.80
2019-01-10T08:10:10.263Z,83.00
2019-01-10T08:12:55.892Z,83.40
2019-01-10T08:15:41.152Z,83.00
2019-01-10T08:18:26.382Z,82.40
2019-01-10T08:21:11.514Z,82.00
2019-01-10T08:23:56.515Z,81.50
2019-01-10T08:26:41.546Z,82.10
2019-01-10T08:29:26.948Z,82.20
2019-01-10T08:32:12.316Z,82.30
2019-01-10T08:34:57.236Z,82.30
2019-01-10T08:37:42.709Z,81.60
2019-01-10T08:40:28.401Z,80.80
2019-01-10T08:43:13.634Z,81.10
2019-01-10T08:45:58.428Z,81.10
2019-01-10T08:48:43.577Z,80.80
2019-01-10T08:51:28.869Z,81.30
2019-01-10T08:54:15.299Z,80.70
2019-01-10T08:57:00.057Z,80.00
2019-01-10T08:59:48.005Z,80.50
2019-01-10T09:02:32.795Z,80.00
2019-01-10T09:05:17.887Z,79.80
2019-01-10T09:08:03.065Z,79.90
2019-01-10T09:10:48.625Z,79.50
2019-01-10T09:13:39.690Z,79.90
2019-01-10T09:16:24.745Z,79.40
2019-01-10T09:19:10.213Z,80.10
2019-01-10T09:21:56.023Z,80.10
2019-01-10T09:24:41.044Z,79.00
2019-01-10T09:27:26.287Z,79.40
2019-01-10T09:30:17.154Z,80.60
2019-01-10T09:33:02.273Z,80.20
2019-01-10T09:35:47.114Z,79.80
2019-01-10T09:38:31.822Z,79.50
2019-01-10T09:41:17.286Z,80.00
2019-01-10T09:44:02.236Z,79.60
2019-01-10T09:46:47.318Z,80.20
2019-01-10T09:49:33.098Z,79.50
2019-01-10T09:52:17.770Z,79.30
2019-01-10T09:55:03.216Z,79.60
2019-01-10T09:57:48.357Z,79.60
2019-01-10T10:00:33.709Z,80.10
2019-01-10T10:03:18.798Z,79.80
2019-01-10T10:06:07.812Z,79.70
2019-01-10T10:08:50.721Z,80.30
2019-01-10T10:11:35.594Z,79.80
2019-01-10T10:14:20.905Z,80.30
2019-01-10T10:17:06.257Z,79.90
2019-01-10T10:19:51.240Z,80.20
2019-01-10T10:22:36.026Z,79.70
2019-01-10T10:25:21.228Z,79.60
2019-01-10T10:28:06.714Z,80.10
2019-01-10T10:30:51.768Z,79.80
2019-01-10T10:33:36.536Z,80.10
2019-01-10T10:36:21.792Z,80.20
2019-01-10T10:39:06.985Z,80.30
2019-01-10T10:41:53.338Z,79.80
2019-01-10T10:44:38.076Z,80.20
2019-01-10T10:47:23.426Z,80.30
2019-01-10T10:50:12.053Z,79.60
2019-01-10T10:52:56.828Z,80.40
2019-01-10T10:55:42.137Z,79.90
2019-01-10T10:58:27.594Z,80.30
2019-01-10T11:01:12.860Z,80.20
2019-01-10T11:03:57.924Z,80.00
2019-01-10T11:06:43.324Z,79.60
2019-01-10T11:09:28.057Z,80.00
2019-01-10T11:12:13.395Z,79.10
2019-01-10T11:14:58.735Z,79.40
2019-01-10T11:17:44.226Z,80.00
2019-01-10T11:20:28.991Z,79.90
2019-01-10T11:23:13.649Z,79.80
2019-01-10T11:25:58.446Z,80.30
2019-01-10T11:28:43.188Z,79.30
2019-01-10T11:31:28.324Z,79.50
2019-01-10T11:34:13.343Z,79.80
2019-01-10T11:36:59.319Z,79.80
2019-01-10T11:39:44.312Z,78.90
2019-01-10T11:42:29.684Z,79.90
2019-01-10T11:45:17.328Z,79.10
2019-01-10T11:48:02.513Z,79.00
2019-01-10T11:50:47.586Z,79.80
2019-01-10T11:53:35.525Z,79.00
2019-01-10T11:56:19.364Z,79.00
2019-01-10T11:59:04.667Z,78.50
2019-01-10T12:01:49.585Z,78.60
2019-01-10T12:04:34.738Z,78.00
2019-01-10T12:07:19.666Z,77.70
2019-01-10T12:10:08.239Z,77.20
2019-01-10T12:12:52.993Z,77.40
2019-01-10T12:15:38.398Z,76.80
2019-01-10T12:18:23.073Z,76.70
2019-01-10T12:21:07.945Z,77.10
2019-01-10T12:23:52.915Z,77.70
2019-01-10T12:26:37.983Z,77.30
2019-01-10T12:29:22.685Z,76.90
2019-01-10T12:32:07.763Z,77.20
2019-01-10T12:34:52.541Z,77.10
2019-01-10T12:37:38.062Z,78.60
2019-01-10T12:40:23.244Z,78.10
2019-01-10T12:43:08.410Z,77.00
2019-01-10T12:45:53.370Z,76.40
2019-01-10T12:48:38.235Z,76.70
2019-01-10T12:51:23.044Z,76.80
2019-01-10T12:54:08.918Z,77.00
2019-01-10T12:56:54.077Z,77.30
2019-01-10T12:59:39.540Z,77.70
2019-01-10T13:02:24.795Z,77.40
2019-01-10T13:05:29.851Z,78.00
2019-01-10T13:08:14.886Z,77.40
2019-01-10T13:10:59.623Z,78.00
2019-01-10T13:13:44.693Z,77.30
2019-01-10T13:16:30.118Z,77.40
2019-01-10T13:19:14.852Z,77.70
2019-01-10T13:22:00.045Z,78.40
2019-01-10T13:24:44.765Z,77.60
2019-01-10T13:27:29.976Z,77.80
2019-01-10T13:30:17.451Z,78.40
2019-01-10T13:33:02.152Z,78.00
2019-01-10T13:35:46.894Z,78.10
2019-01-10T13:38:32.133Z,78.00
2019-01-10T13:41:17.510Z,78.30
2019-01-10T13:44:02.682Z,77.90
2019-01-10T13:46:55.420Z,78.10
2019-01-10T13:49:34.169Z,78.40
2019-01-10T13:52:20.592Z,78.20
2019-01-10T13:55:09.539Z,78.60
2019-01-10T13:57:54.685Z,79.00
2019-01-10T14:00:40.335Z,78.80
2019-01-10T14:03:25.226Z,78.80
2019-01-10T14:06:10.462Z,78.90
2019-01-10T14:08:55.922Z,79.30
2019-01-10T14:11:41.213Z,79.20
2019-01-10T14:14:26.410Z,79.30
2019-01-10T14:17:11.655Z,79.70
2019-01-10T14:19:56.988Z,79.50
2019-01-10T14:22:42.669Z,79.60
2019-01-10T14:25:27.718Z,79.60
2019-01-10T14:28:12.946Z,79.60
2019-01-10T14:30:58.481Z,79.50
2019-01-10T14:33:43.586Z,79.40
2019-01-10T14:36:28.900Z,79.20
2019-01-10T14:39:14.530Z,79.40
2019-01-10T14:41:59.565Z,79.60
2019-01-10T14:44:44.788Z,79.60
2019-01-10T14:47:29.707Z,79.50
2019-01-10T14:50:18.631Z,79.30
2019-01-10T14:53:03.894Z,79.10
2019-01-10T14:55:49.588Z,79.10
2019-01-10T14:58:34.854Z,79.10
2019-01-10T15:01:20.091Z,79.20
2019-01-10T15:04:04.825Z,78.90
2019-01-10T15:06:49.989Z,79.10
2019-01-10T15:09:34.963Z,78.40
2019-01-10T15:12:19.570Z,79.00
2019-01-10T15:15:08.320Z,78.60
2019-01-10T15:17:53.418Z,79.00
2019-01-10T15:20:38.580Z,78.80
2019-01-10T15:23:23.620Z,78.70
2019-01-10T15:26:08.381Z,78.40
2019-01-10T15:28:53.215Z,79.60
2019-01-10T15:31:38.004Z,79.50
2019-01-10T15:34:23.650Z,78.40
2019-01-10T15:37:08.952Z,79.40
2019-01-10T15:39:54.111Z,78.70
2019-01-10T15:42:39.491Z,78.30
2019-01-10T15:45:24.657Z,77.90
2019-01-10T15:48:10.161Z,77.90
2019-01-10T15:50:55.323Z,78.70
2019-01-10T15:53:40.119Z,78.30
2019-01-10T15:56:25.321Z,78.00
2019-01-10T15:59:10.321Z,78.60
2019-01-10T16:01:55.608Z,78.70
2019-01-10T16:04:40.283Z,78.60
2019-01-10T16:07:25.377Z,78.50
2019-01-10T16:10:14.211Z,79.10
2019-01-10T16:12:59.282Z,79.30
2019-01-10T16:15:44.612Z,78.30
2019-01-10T16:18:29.810Z,78.50
2019-01-10T16:21:15.054Z,77.80
2019-01-10T16:24:00.347Z,77.80
2019-01-10T16:26:45.429Z,77.80
2019-01-10T16:29:30.684Z,77.30
2019-01-10T16:32:15.582Z,77.10
2019-01-10T16:35:00.982Z,77.70
2019-01-10T16:37:46.082Z,77.20
2019-01-10T16:40:31.214Z,76.90
2019-01-10T16:43:16.410Z,76.60
2019-01-10T16:46:01.154Z,76.60
2019-01-10T16:48:46.017Z,76.90
2019-01-10T16:51:31.276Z,75.80
2019-01-10T16:54:16.686Z,76.50
2019-01-10T16:57:01.889Z,77.10
2019-01-10T16:59:46.766Z,76.50
2019-01-10T17:02:36.143Z,76.60
2019-01-10T17:05:18.587Z,76.60
2019-01-10T17:08:04.045Z,76.10
2019-01-10T17:10:49.259Z,77.00
2019-01-10T17:13:34.453Z,75.90
2019-01-10T17:16:19.763Z,76.10
2019-01-10T17:19:04.934Z,76.20
2019-01-10T17:21:49.599Z,76.40
2019-01-10T17:24:34.703Z,77.10
2019-01-10T17:27:19.807Z,77.00
2019-01-10T17:30:08.818Z,77.00
2019-01-10T17:32:53.963Z,77.30
2019-01-10T17:35:39.182Z,76.80
2019-01-10T17:38:24.030Z,76.90
2019-01-10T17:41:09.032Z,76.20
2019-01-10T17:43:54.144Z,76.00
2019-01-10T17:46:39.408Z,76.30
2019-01-10T17:49:24.573Z,76.10
2019-01-10T17:52:29.775Z,76.00
2019-01-10T17:55:14.880Z,75.60
2019-01-10T17:58:00.053Z,74.90
2019-01-10T18:00:44.874Z,75.90
2019-01-10T18:03:30.102Z,76.30
2019-01-10T18:06:15.131Z,76.40
2019-01-10T18:09:00.600Z,77.10
2019-01-10T18:11:45.361Z,77.30
2019-01-10T18:14:30.269Z,77.30
2019-01-10T18:17:15.164Z,77.00
2019-01-10T18:20:00.595Z,76.00
2019-01-10T18:22:45.494Z,76.10
2019-01-10T18:25:30.673Z,76.00
2019-01-10T18:28:15.567Z,77.10
2019-01-10T18:31:00.754Z,76.90
2019-01-10T18:33:45.620Z,77.50
2019-01-10T18:36:30.885Z,77.70
2019-01-10T18:39:15.577Z,76.70
2019-01-10T18:42:00.688Z,76.30
2019-01-10T18:44:45.940Z,76.50
2019-01-10T18:47:31.207Z,75.40
2019-01-10T18:50:18.065Z,75.50
2019-01-10T18:53:02.783Z,75.40
2019-01-10T18:55:48.054Z,75.10
2019-01-10T18:58:33.715Z,75.70
2019-01-10T19:01:18.635Z,75.80
2019-01-10T19:04:03.889Z,75.80
2019-01-10T19:06:48.813Z,74.90
2019-01-10T19:09:34.155Z,75.90
2019-01-10T19:12:18.972Z,76.80
2019-01-10T19:15:06.087Z,77.50
2019-01-10T19:17:50.765Z,76.80
2019-01-10T19:20:35.965Z,76.20
2019-01-10T19:23:21.334Z,76.40
2019-01-10T19:26:06.343Z,75.60
2019-01-10T19:28:51.519Z,76.70
2019-01-10T19:31:36.219Z,76.40
2019-01-10T19:34:20.946Z,76.10
2019-01-10T19:37:05.642Z,76.10
2019-01-10T19:39:50.252Z,76.10
2019-01-10T19:42:35.539Z,75.60
2019-01-10T19:45:21.590Z,75.50
2019-01-10T19:48:09.734Z,75.40
2019-01-10T19:50:53.282Z,75.20
2019-01-10T19:53:38.534Z,75.60
2019-01-10T19:56:23.781Z,75.80
2019-01-10T19:59:09.503Z,76.10
2019-01-10T20:01:54.163Z,75.40
2019-01-10T20:04:39.020Z,74.80
2019-01-10T20:07:24.547Z,75.20
2019-01-10T20:10:12.595Z,75.50
2019-01-10T20:12:57.474Z,75.60
2019-01-10T20:15:42.158Z,75.40
2019-01-10T20:18:27.024Z,74.90
2019-01-10T20:21:12.161Z,75.20
2019-01-10T20:23:57.462Z,75.30
2019-01-10T20:26:42.199Z,75.40
2019-01-10T20:29:29.289Z,75.20
2019-01-10T20:32:14.502Z,75.50
2019-01-10T20:34:59.617Z,75.40
2019-01-10T20:37:44.704Z,75.00
2019-01-10T20:40:30.030Z,75.40
2019-01-10T20:43:15.160Z,74.60
2019-01-10T20:46:00.632Z,74.60
2019-01-10T20:48:46.121Z,74.70
2019-01-10T20:51:31.302Z,74.10
2019-01-10T20:54:17.208Z,73.70
2019-01-10T20:57:02.154Z,74.00
2019-01-10T20:59:46.906Z,73.80
2019-01-10T21:02:31.991Z,73.90
2019-01-10T21:05:19.325Z,74.70
2019-01-10T21:08:04.470Z,75.20
2019-01-10T21:10:49.403Z,74.40
2019-01-10T21:13:34.532Z,73.70
2019-01-10T21:16:19.670Z,73.80
2019-01-10T21:19:04.725Z,74.20
2019-01-10T21:21:49.657Z,75.00
2019-01-10T21:24:34.922Z,74.50
2019-01-10T21:27:20.275Z,74.40
2019-01-10T21:30:12.038Z,74.20
2019-01-10T21:32:56.915Z,73.60
2019-01-10T21:35:42.046Z,73.30
2019-01-10T21:38:27.194Z,73.10
2019-01-10T21:41:12.070Z,73.60
2019-01-10T21:43:57.338Z,73.20
2019-01-10T21:46:42.778Z,73.30
2019-01-10T21:49:27.924Z,73.00
2019-01-10T21:52:12.794Z,73.40
2019-01-10T21:54:57.605Z,73.20
2019-01-10T21:57:42.797Z,73.40
2019-01-10T22:00:29.833Z,73.40
2019-01-10T22:03:14.704Z,73.60
2019-01-10T22:05:59.656Z,74.10
2019-01-10T22:08:44.646Z,74.10
2019-01-10T22:11:29.486Z,74.40
2019-01-10T22:14:14.491Z,74.70
2019-01-10T22:16:59.385Z,74.60
2019-01-10T22:19:44.885Z,74.90
2019-01-10T22:22:49.932Z,74.60
2019-01-10T22:25:35.292Z,74.50
2019-01-10T22:28:20.724Z,75.30
2019-01-10T22:31:07.369Z,75.70
2019-01-10T22:33:52.806Z,74.70
2019-01-10T22:36:39.311Z,74.70
2019-01-10T22:39:24.462Z,75.80
2019-01-10T22:42:10.586Z,75.20
2019-01-10T22:44:55.370Z,75.50
2019-01-10T22:47:40.109Z,75.60
2019-01-10T22:50:24.706Z,75.10
2019-01-10T22:53:09.943Z,75.50
2019-01-10T22:55:54.777Z,75.10
2019-01-10T22:58:39.974Z,75.40
2019-01-10T23:01:30.472Z,75.00
2019-01-10T23:04:19.001Z,74.80
2019-01-10T23:07:09.779Z,75.10
2019-01-10T23:09:59.581Z,74.80
2019-01-10T23:12:45.046Z,75.70
2019-01-10T23:15:31.959Z,75.10
2019-01-10T23:18:17.478Z,74.90
2019-01-10T23:21:02.838Z,75.40
2019-01-10T23:23:47.966Z,75.90
2019-01-10T23:26:33.142Z,75.00
2019-01-10T23:29:18.991Z,75.50
2019-01-10T23:32:07.284Z,75.50
2019-01-10T23:34:52.678Z,75.20
2019-01-10T23:37:37.954Z,76.80
2019-01-10T23:40:22.726Z,76.70
2019-01-10T23:43:07.938Z,76.90
2019-01-10T23:45:52.619Z,76.20
2019-01-10T23:48:38.023Z,75.70
2019-01-10T23:51:23.679Z,75.90
2019-01-10T23:54:08.353Z,75.80
2019-01-10T23:56:54.149Z,75.70
2019-01-10T23:59:39.086Z,76.40
